Time;durP1;ratioP1;P1;durP2;ratioP2;P2;SDS_P1;SDS_P2;PMS_P1;PMS_P2;Temp;Humidity;BMP_temperature;BMP_pressure;BME280_temperature;BME280_humidity;BME280_pressure;Samples;Min_cycle;Max_cycle;Signal;HPM_P1;HPM_P2
2023/04/17 00:00:25;;;;;;;29.30;21.10;;;;;;;9.76;72.99;100621.55;129457;1264;115201;-64
2023/04/17 00:03:47;;;;;;;34.30;22.40;;;;;;;9.74;73.14;100617.19;129801;1260;114756;-65
2023/04/17 00:06:52;;;;;;;30.30;20.70;;;;;;;9.72;73.27;100617.08;129328;1264;114761;-64
2023/04/17 00:09:54;;;;;;;31.20;22.30;;;;;;;9.71;73.27;100619.28;129672;1260;114795;-64
2023/04/17 00:12:57;;;;;;;30.20;21.30;;;;;;;9.69;73.46;100619.52;129674;1277;114883;-66
2023/04/17 00:15:59;;;;;;;30.10;21.30;;;;;;;9.67;73.54;100619.23;129774;1264;114719;-64
2023/04/17 00:19:01;;;;;;;31.90;21.40;;;;;;;9.64;73.52;100618.29;129692;1261;115341;-65
2023/04/17 00:22:03;;;;;;;32.20;22.50;;;;;;;9.61;73.62;100617.71;129638;1261;114726;-64
2023/04/17 00:25:06;;;;;;;34.10;23.90;;;;;;;9.57;73.66;100616.98;129730;1260;114718;-64
2023/04/17 00:28:08;;;;;;;39.40;26.00;;;;;;;9.54;73.80;100616.56;129338;1263;128325;-65
2023/04/17 00:31:10;;;;;;;36.70;25.70;;;;;;;9.51;73.84;100618.99;129689;1264;114759;-65
2023/04/17 00:34:12;;;;;;;39.60;26.60;;;;;;;9.47;73.88;100619.33;129781;1258;114804;-64
2023/04/17 00:37:14;;;;;;;37.60;27.10;;;;;;;9.43;73.97;100619.51;129547;1261;114820;-65
2023/04/17 00:40:16;;;;;;;39.90;27.60;;;;;;;9.39;73.98;100616.80;129715;1264;114725;-66
2023/04/17 00:43:18;;;;;;;39.70;27.30;;;;;;;9.34;74.27;100619.31;129733;1264;115246;-65
2023/04/17 00:46:20;;;;;;;44.20;27.80;;;;;;;9.30;74.17;100622.16;129394;1264;114893;-64
2023/04/17 00:49:23;;;;;;;48.40;29.10;;;;;;;9.24;74.21;100621.29;129670;1264;114851;-65
2023/04/17 00:52:28;;;;;;;43.10;29.70;;;;;;;9.19;74.50;100623.62;129645;1260;115229;-65
2023/04/17 00:55:31;;;;;;;40.50;29.10;;;;;;;9.14;74.42;100617.93;129728;1261;114988;-65
2023/04/17 00:58:35;;;;;;;43.30;31.20;;;;;;;9.10;74.86;100617.21;129713;1261;114797;-64
2023/04/17 01:01:37;;;;;;;46.00;29.50;;;;;;;9.04;74.71;100616.52;129464;1266;114811;-65
2023/04/17 01:04:39;;;;;;;43.50;29.10;;;;;;;8.98;74.67;100618.02;129665;1264;114705;-65
2023/04/17 01:07:41;;;;;;;43.90;30.70;;;;;;;8.93;74.82;100616.96;129808;1260;114797;-65
2023/04/17 01:10:44;;;;;;;46.50;30.60;;;;;;;8.88;75.09;100619.98;129807;1260;114826;-65
2023/04/17 01:13:47;;;;;;;47.10;32.60;;;;;;;8.83;75.15;100621.05;129770;1263;115194;-65
2023/04/17 01:16:49;;;;;;;48.60;33.80;;;;;;;8.78;75.07;100622.14;129774;1263;114751;-65
2023/04/17 01:19:52;;;;;;;46.50;32.40;;;;;;;8.76;75.21;100625.23;129614;1264;114727;-65
2023/04/17 01:22:54;;;;;;;49.60;34.40;;;;;;;8.73;75.55;100629.27;129525;1264;246297;-65
2023/04/17 01:26:02;;;;;;;53.10;37.00;;;;;;;8.71;75.88;100627.36;130472;1251;128217;-69
2023/04/17 01:29:04;;;;;;;54.20;36.80;;;;;;;8.69;76.07;100626.74;129573;1258;115990;-70
2023/04/17 01:32:06;;;;;;;52.30;35.90;;;;;;;8.69;75.91;100623.34;129807;1261;115232;-69
2023/04/17 01:35:09;;;;;;;58.00;39.40;;;;;;;8.69;76.30;100620.52;129853;1261;114744;-70
2023/04/17 01:38:11;;;;;;;60.50;40.10;;;;;;;8.69;76.65;100622.45;130145;1257;114704;-69
2023/04/17 01:41:13;;;;;;;56.80;38.70;;;;;;;8.69;76.48;100625.16;129564;1259;114822;-70
2023/04/17 01:44:16;;;;;;;57.50;39.30;;;;;;;8.69;76.43;100626.75;129754;1259;114755;-69
2023/04/17 01:47:18;;;;;;;57.40;40.80;;;;;;;8.69;76.42;100628.70;129805;1259;115446;-71
2023/04/17 01:50:21;;;;;;;57.90;40.20;;;;;;;8.71;76.64;100632.92;129853;1281;114762;-70
2023/04/17 01:53:23;;;;;;;61.30;41.30;;;;;;;8.72;76.62;100638.04;129872;1266;114831;-65
2023/04/17 01:56:26;;;;;;;56.50;38.70;;;;;;;8.73;76.89;100637.81;130071;1261;114806;-67
2023/04/17 01:59:29;;;;;;;58.90;39.70;;;;;;;8.74;76.70;100640.27;129801;1265;114745;-64
2023/04/17 02:02:32;;;;;;;57.90;40.20;;;;;;;8.76;76.68;100639.48;130171;1262;114707;-66
2023/04/17 02:05:34;;;;;;;61.00;40.50;;;;;;;8.77;76.53;100639.61;129989;1263;114771;-64
2023/04/17 02:08:37;;;;;;;56.80;40.20;;;;;;;8.78;76.34;100641.89;129792;1261;115202;-65
2023/04/17 02:11:39;;;;;;;59.00;39.00;;;;;;;8.79;76.47;100644.34;129784;1278;114886;-64
2023/04/17 02:14:42;;;;;;;58.10;38.10;;;;;;;8.80;76.48;100642.00;129551;1261;115156;-65
2023/04/17 02:17:44;;;;;;;55.10;36.40;;;;;;;8.80;76.48;100644.68;129621;1281;115080;-65
2023/04/17 02:20:46;;;;;;;57.80;39.20;;;;;;;8.79;76.49;100642.04;129441;1264;114824;-64
2023/04/17 02:23:49;;;;;;;57.50;39.30;;;;;;;8.79;76.65;100640.23;129418;1261;114817;-66
2023/04/17 02:26:51;;;;;;;57.80;39.60;;;;;;;8.79;76.58;100642.41;129564;1259;114847;-65
2023/04/17 02:29:54;;;;;;;51.10;37.20;;;;;;;8.78;76.59;100646.69;129577;1259;115238;-65
2023/04/17 02:32:57;;;;;;;57.80;39.10;;;;;;;8.78;76.65;100649.90;129495;1258;114741;-67
2023/04/17 02:36:00;;;;;;;50.70;35.90;;;;;;;8.78;76.52;100651.52;129498;1260;115267;-65
2023/04/17 02:39:04;;;;;;;58.30;36.90;;;;;;;8.78;76.37;100651.70;129487;1260;115411;-64
2023/04/17 02:42:06;;;;;;;57.70;38.20;;;;;;;8.77;76.45;100654.08;129437;1261;114818;-65
2023/04/17 02:45:10;;;;;;;60.70;38.60;;;;;;;8.76;76.63;100654.10;129428;1262;114778;-64
2023/04/17 02:48:12;;;;;;;61.80;40.90;;;;;;;8.74;76.47;100653.98;129507;1259;114758;-65
2023/04/17 02:51:14;;;;;;;57.50;38.60;;;;;;;8.72;76.27;100653.15;129506;1261;114737;-64
2023/04/17 02:54:17;;;;;;;53.50;37.10;;;;;;;8.71;76.58;100654.80;129551;1262;115380;-65
2023/04/17 02:57:19;;;;;;;61.70;40.30;;;;;;;8.69;76.50;100656.66;129459;1281;114771;-64
2023/04/17 03:00:23;;;;;;;60.20;39.70;;;;;;;8.66;76.61;100656.05;129630;1259;114785;-65
2023/04/17 03:03:25;;;;;;;59.50;40.00;;;;;;;8.63;76.51;100662.21;129564;1262;114727;-64
2023/04/17 03:06:29;;;;;;;59.00;38.50;;;;;;;8.60;76.97;100662.31;129573;1261;114804;-64
2023/04/17 03:09:32;;;;;;;63.00;40.50;;;;;;;8.57;76.61;100664.90;129474;1262;114787;-65
2023/04/17 03:12:35;;;;;;;61.50;39.90;;;;;;;8.56;76.99;100669.23;129470;1281;115360;-64
2023/04/17 03:15:37;;;;;;;59.20;40.80;;;;;;;8.55;76.61;100668.52;129498;1259;114729;-64
2023/04/17 03:18:42;;;;;;;58.90;40.40;;;;;;;8.56;76.97;100668.52;129559;1262;114765;-65
2023/04/17 03:21:45;;;;;;;;;;;;;;;8.55;76.98;100667.30;129410;1264;115124;-65
2023/04/17 03:24:47;;;;;;;63.50;41.80;;;;;;;8.53;77.15;100669.66;129523;1261;114720;-65
2023/04/17 03:27:50;;;;;;;67.40;42.10;;;;;;;8.52;76.97;100670.42;129514;1262;115218;-65
2023/04/17 03:30:54;;;;;;;58.20;40.80;;;;;;;8.51;77.11;100670.81;129413;1262;114801;-64
2023/04/17 03:33:57;;;;;;;63.00;40.60;;;;;;;8.49;77.01;100672.83;129441;1259;114801;-64
2023/04/17 03:36:59;;;;;;;68.90;41.80;;;;;;;8.47;77.05;100671.80;129484;1260;114762;-68
2023/04/17 03:40:04;;;;;;;55.50;38.40;;;;;;;8.46;76.89;100675.93;129499;1261;115175;-64
2023/04/17 03:43:07;;;;;;;62.20;42.50;;;;;;;8.45;77.11;100678.64;129513;1277;114763;-65
2023/04/17 03:46:10;;;;;;;62.90;42.60;;;;;;;8.44;76.96;100679.73;129485;1266;114735;-65
2023/04/17 03:49:12;;;;;;;59.30;41.90;;;;;;;8.44;77.19;100681.36;129435;1261;114801;-67
2023/04/17 03:52:15;;;;;;;62.40;43.30;;;;;;;8.44;77.03;100685.27;129488;1261;115191;-65
2023/04/17 03:55:18;;;;;;;65.40;42.50;;;;;;;8.45;77.18;100685.39;129565;1261;115335;-67
2023/04/17 03:58:20;;;;;;;64.00;42.90;;;;;;;8.45;77.19;100687.71;129454;1259;114782;-65
2023/04/17 04:01:26;;;;;;;63.90;43.00;;;;;;;8.47;77.29;100693.36;129558;1262;114798;-64
2023/04/17 04:04:30;;;;;;;58.60;41.10;;;;;;;8.48;77.39;100699.93;129216;1259;114929;-68
2023/04/17 04:07:32;;;;;;;60.30;41.60;;;;;;;8.50;77.19;100700.23;129392;1261;114866;-65
2023/04/17 04:10:34;;;;;;;61.80;42.50;;;;;;;8.54;77.27;100702.05;129473;1262;114728;-66
2023/04/17 04:13:36;;;;;;;63.20;42.10;;;;;;;8.58;77.30;100698.88;129432;1262;114737;-67
2023/04/17 04:16:39;;;;;;;58.30;41.50;;;;;;;8.62;77.43;100695.36;129537;1260;114727;-65
2023/04/17 04:19:42;;;;;;;58.10;41.30;;;;;;;8.67;77.15;100699.65;129625;1261;114755;-66
2023/04/17 04:22:44;;;;;;;61.70;41.10;;;;;;;8.70;77.06;100699.55;129646;1259;114720;-65
2023/04/17 04:25:48;;;;;;;58.70;40.90;;;;;;;8.72;77.04;100698.23;129607;1261;114765;-67
2023/04/17 04:28:51;;;;;;;64.90;42.10;;;;;;;8.75;77.19;100699.70;129518;1261;114748;-68
2023/04/17 04:31:54;;;;;;;56.40;39.60;;;;;;;8.79;76.93;100702.40;129522;1261;115385;-66
2023/04/17 04:34:57;;;;;;;60.30;43.00;;;;;;;8.84;76.83;100708.86;129699;1262;115055;-65
2023/04/17 04:38:01;;;;;;;62.50;41.90;;;;;;;8.87;76.84;100708.55;129523;1259;114758;-67
2023/04/17 04:41:09;;;;;;;56.40;40.40;;;;;;;8.92;76.71;100711.95;129299;1263;115131;-65
2023/04/17 04:44:12;;;;;;;63.80;42.70;;;;;;;8.94;76.63;100711.84;129509;1271;128990;-64
2023/04/17 04:47:14;;;;;;;61.80;41.90;;;;;;;8.95;76.50;100712.16;129457;1275;114734;-65
2023/04/17 04:50:17;;;;;;;60.80;41.80;;;;;;;8.95;76.57;100716.61;129486;1264;114793;-64
2023/04/17 04:53:19;;;;;;;59.80;41.50;;;;;;;8.94;76.60;100716.32;129631;1261;114786;-64
2023/04/17 04:56:21;;;;;;;61.30;41.40;;;;;;;8.92;76.37;100720.66;129372;1266;116377;-68
2023/04/17 04:59:24;;;;;;;60.40;40.30;;;;;;;8.91;76.52;100722.29;129499;1271;114989;-65
2023/04/17 05:02:26;;;;;;;61.70;40.50;;;;;;;8.93;76.47;100724.02;129423;1276;114729;-65
2023/04/17 05:05:29;;;;;;;61.80;40.70;;;;;;;8.98;76.52;100726.84;129660;1258;114704;-66
2023/04/17 05:08:32;;;;;;;63.10;40.70;;;;;;;9.08;76.64;100726.67;129536;1281;115183;-66
2023/04/17 05:11:35;;;;;;;55.30;38.70;;;;;;;9.24;76.69;100731.80;129461;1261;114725;-66
2023/04/17 05:14:38;;;;;;;56.90;37.60;;;;;;;9.40;76.64;100732.83;129636;1261;115316;-67
2023/04/17 05:17:40;;;;;;;50.60;35.00;;;;;;;9.56;76.31;100733.46;129594;1261;114723;-66
2023/04/17 05:20:42;;;;;;;52.60;36.10;;;;;;;9.73;76.19;100735.13;129458;1259;114842;-65
2023/04/17 05:23:45;;;;;;;51.70;35.60;;;;;;;9.90;76.06;100738.20;129530;1260;115152;-66
2023/04/17 05:26:47;;;;;;;52.30;36.40;;;;;;;10.08;75.90;100741.39;129478;1259;115431;-65
2023/04/17 05:29:50;;;;;;;48.50;34.10;;;;;;;10.22;75.91;100741.93;129456;1258;114805;-65
2023/04/17 05:32:53;;;;;;;50.30;33.00;;;;;;;10.33;75.41;100745.55;129469;1262;114770;-66
2023/04/17 05:35:55;;;;;;;47.50;34.40;;;;;;;10.41;75.35;100743.49;129688;1262;114788;-66
2023/04/17 05:38:57;;;;;;;49.30;34.40;;;;;;;10.45;74.85;100752.61;129563;1262;114696;-67
2023/04/17 05:42:00;;;;;;;43.90;33.20;;;;;;;10.48;74.61;100751.61;129463;1272;114848;-65
2023/04/17 05:45:03;;;;;;;46.00;33.60;;;;;;;10.54;74.74;100751.72;129451;1276;115024;-66
2023/04/17 05:48:08;;;;;;;40.30;30.90;;;;;;;10.62;74.11;100755.29;129564;1261;115976;-66
2023/04/17 05:51:13;;;;;;;38.30;28.40;;;;;;;10.70;74.12;100757.80;129726;1261;114774;-68
2023/04/17 05:54:15;;;;;;;41.10;29.20;;;;;;;10.80;73.97;100754.01;129603;1262;114712;-67
2023/04/17 05:57:18;;;;;;;39.60;30.00;;;;;;;10.97;73.92;100754.70;129597;1261;115182;-64
2023/04/17 06:00:23;;;;;;;39.10;28.50;;;;;;;11.15;73.87;100755.88;129650;1262;114746;-68
2023/04/17 06:03:26;;;;;;;43.80;27.80;;;;;;;11.26;73.28;100754.30;130867;1261;114744;-67
2023/04/17 06:06:29;;;;;;;40.80;29.00;;;;;;;11.36;72.97;100754.22;131626;1259;114719;-68
2023/04/17 06:09:32;;;;;;;60.80;40.20;;;;;;;11.55;72.69;100755.13;131170;1261;115359;-72
2023/04/17 06:12:36;;;;;;;39.20;27.60;;;;;;;11.81;72.39;100755.35;129671;1262;114815;-71
2023/04/17 06:15:38;;;;;;;37.50;26.20;;;;;;;12.12;71.79;100761.98;129897;1262;114925;-70
2023/04/17 06:18:41;;;;;;;42.80;27.30;;;;;;;12.30;71.56;100758.22;129794;1281;115194;-69
2023/04/17 06:21:44;;;;;;;37.60;26.30;;;;;;;12.43;71.02;100756.70;129829;1261;115147;-69
2023/04/17 06:24:46;;;;;;;29.40;22.80;;;;;;;12.50;70.91;100755.80;129791;1273;114790;-70
2023/04/17 06:27:48;;;;;;;34.10;26.20;;;;;;;12.75;71.19;100756.71;129751;1261;114730;-70
2023/04/17 06:30:51;;;;;;;38.90;26.60;;;;;;;13.10;70.66;100756.89;129593;1271;114812;-70
2023/04/17 06:33:53;;;;;;;52.50;32.30;;;;;;;13.19;70.03;100757.67;129554;1264;114803;-70
2023/04/17 06:36:55;;;;;;;27.80;20.70;;;;;;;13.45;69.97;100761.48;129651;1260;114790;-70
2023/04/17 06:39:58;;;;;;;26.20;20.20;;;;;;;13.59;68.91;100761.85;129509;1264;115391;-70
2023/04/17 06:43:00;;;;;;;26.30;21.10;;;;;;;13.74;68.78;100762.27;129434;1281;114719;-71
2023/04/17 06:46:06;;;;;;;28.50;21.10;;;;;;;13.92;68.35;100767.75;129478;1281;114830;-71
2023/04/17 06:49:08;;;;;;;25.60;19.20;;;;;;;13.99;67.51;100769.48;129289;1272;127811;-71
2023/04/17 06:52:10;;;;;;;27.20;20.00;;;;;;;14.18;67.78;100768.41;129556;1266;114810;-72
2023/04/17 06:55:13;;;;;;;24.80;19.80;;;;;;;14.34;66.72;100769.52;129462;1262;114711;-71
2023/04/17 06:58:16;;;;;;;25.10;19.70;;;;;;;14.39;66.35;100769.40;129481;1261;115234;-72
2023/04/17 07:01:18;;;;;;;23.80;19.00;;;;;;;14.53;66.81;100769.98;129574;1264;114796;-72
2023/04/17 07:04:21;;;;;;;26.90;19.70;;;;;;;14.76;65.99;100773.72;129590;1273;114716;-72
2023/04/17 07:07:24;;;;;;;23.80;18.80;;;;;;;14.99;65.38;100772.15;129518;1281;114761;-72
2023/04/17 07:10:26;;;;;;;24.40;17.20;;;;;;;15.21;65.08;100775.71;129466;1262;114735;-72
2023/04/17 07:13:31;;;;;;;23.20;19.20;;;;;;;15.44;65.24;100775.35;129452;1261;114784;-72
2023/04/17 07:16:34;;;;;;;20.90;16.70;;;;;;;15.86;64.88;100774.89;129849;1281;114728;-72
2023/04/17 07:19:36;;;;;;;22.00;17.60;;;;;;;16.21;64.16;100779.16;129425;1262;114780;-72
2023/04/17 07:22:38;;;;;;;24.40;18.60;;;;;;;16.42;63.47;100780.30;129740;1265;115104;-73
2023/04/17 07:25:41;;;;;;;27.40;22.20;;;;;;;16.77;63.69;100784.84;129577;1259;115481;-71
2023/04/17 07:28:43;;;;;;;27.70;21.90;;;;;;;17.08;63.45;100788.55;129298;1281;130276;-72
2023/04/17 07:31:45;;;;;;;25.50;20.60;;;;;;;17.37;62.55;100787.79;129513;1264;116403;-72
2023/04/17 07:34:47;;;;;;;26.40;21.50;;;;;;;17.52;61.99;100792.55;129494;1261;114708;-71
2023/04/17 07:37:50;;;;;;;28.80;22.90;;;;;;;17.76;62.19;100791.20;129682;1281;114694;-71
2023/04/17 07:40:53;;;;;;;28.70;23.20;;;;;;;18.08;61.61;100793.96;129591;1262;114732;-70
2023/04/17 07:43:56;;;;;;;32.80;24.80;;;;;;;18.29;60.77;100798.02;129711;1271;114784;-72
2023/04/17 07:46:59;;;;;;;29.90;23.30;;;;;;;18.43;60.54;100798.08;129796;1281;114834;-72
2023/04/17 07:50:02;;;;;;;32.00;24.10;;;;;;;18.61;59.96;100801.64;129468;1281;114665;-73
2023/04/17 07:53:04;;;;;;;30.90;23.10;;;;;;;18.65;59.54;100804.40;129521;1261;115333;-73
2023/04/17 07:56:07;;;;;;;29.10;23.50;;;;;;;18.86;59.35;100810.61;129576;1266;114801;-66
2023/04/17 07:59:11;;;;;;;29.50;24.50;;;;;;;19.20;59.03;100808.80;129704;1281;115084;-65
2023/04/17 08:02:15;;;;;;;30.90;24.80;;;;;;;19.28;57.82;100813.01;129795;1272;116494;-66
2023/04/17 08:05:17;;;;;;;25.00;17.30;;;;;;;19.17;57.21;100815.89;129632;1266;127894;-66
2023/04/17 08:08:23;;;;;;;35.80;25.20;;;;;;;19.14;57.45;100809.02;129649;1271;114817;-65
2023/04/17 08:11:25;;;;;;;38.40;26.60;;;;;;;19.19;57.05;100811.17;129595;1266;115360;-65
2023/04/17 08:14:27;;;;;;;33.70;25.80;;;;;;;19.30;57.03;100811.26;129493;1276;114805;-65
2023/04/17 08:17:29;;;;;;;31.70;25.80;;;;;;;19.21;56.53;100810.80;129466;1273;114790;-67
2023/04/17 08:20:32;;;;;;;29.90;24.20;;;;;;;18.94;55.81;100809.96;129223;1264;114958;-66
2023/04/17 08:23:34;;;;;;;30.40;23.50;;;;;;;19.01;56.05;100809.45;129443;1262;114796;-68
2023/04/17 08:26:36;;;;;;;24.60;20.90;;;;;;;19.06;55.09;100814.90;129370;1271;114729;-64
2023/04/17 08:29:39;;;;;;;27.70;22.20;;;;;;;18.85;54.94;100813.61;129453;1265;115084;-70
2023/04/17 08:32:44;;;;;;;29.10;21.90;;;;;;;18.78;55.04;100817.90;129332;1266;114843;-71
2023/04/17 08:35:46;;;;;;;;;;;;;;;18.73;54.65;100817.02;129383;1267;114774;-71
2023/04/17 08:43:19;;;;;;;29.80;22.70;;;;;;;18.15;53.58;100827.63;128430;1288;128681;-66
2023/04/17 08:46:22;;;;;;;34.70;24.20;;;;;;;17.84;54.33;100833.10;128882;1270;115418;-66
2023/04/17 08:49:27;;;;;;;29.10;22.80;;;;;;;17.71;54.58;100834.50;129029;1286;115343;-65
2023/04/17 08:52:29;;;;;;;30.40;24.40;;;;;;;17.59;54.26;100836.97;128794;1270;114974;-66
2023/04/17 08:55:32;;;;;;;31.60;24.10;;;;;;;17.45;54.08;100840.87;128998;1278;114881;-66
2023/04/17 08:58:35;;;;;;;33.00;25.80;;;;;;;17.20;54.17;100842.80;129052;1265;115511;-66
2023/04/17 09:01:37;;;;;;;33.60;25.70;;;;;;;17.10;54.78;100841.45;129024;1288;129036;-65
2023/04/17 09:04:43;;;;;;;35.70;26.00;;;;;;;17.01;54.50;100844.92;128976;1288;114845;-67
2023/04/17 09:07:45;;;;;;;32.80;23.70;;;;;;;16.77;54.69;100847.46;128922;1273;114797;-65
2023/04/17 09:10:49;;;;;;;39.20;28.50;;;;;;;16.60;54.83;100851.79;129114;1270;114981;-64
2023/04/17 09:13:52;;;;;;;33.00;24.60;;;;;;;16.32;54.99;100855.98;129091;1271;114826;-67
2023/04/17 09:16:54;;;;;;;39.80;28.50;;;;;;;16.06;55.40;100856.55;128968;1278;114879;-64
2023/04/17 09:20:02;;;;;;;43.90;30.20;;;;;;;15.91;55.53;100863.59;129362;1281;114775;-66
2023/04/17 09:23:05;;;;;;;39.40;28.20;;;;;;;15.78;56.07;100864.38;129607;1265;114705;-65
2023/04/17 09:26:12;;;;;;;38.30;28.40;;;;;;;15.71;55.97;100866.07;129585;1261;114829;-65
2023/04/17 09:29:15;;;;;;;37.70;28.00;;;;;;;15.51;56.14;100868.70;129468;1273;115133;-64
2023/04/17 09:32:17;;;;;;;37.50;27.40;;;;;;;15.48;56.64;100864.40;129517;1265;114780;-65
2023/04/17 09:35:27;;;;;;;34.60;26.50;;;;;;;15.53;56.71;100864.68;129665;1267;114745;-65
2023/04/17 09:38:36;;;;;;;35.40;27.40;;;;;;;15.49;56.81;100868.11;129482;1281;114743;-65
2023/04/17 09:41:39;;;;;;;36.40;27.30;;;;;;;15.48;57.04;100867.48;129561;1263;114767;-66
2023/04/17 09:44:42;;;;;;;33.50;25.40;;;;;;;15.44;56.95;100872.20;129496;1271;114743;-68
2023/04/17 09:47:47;;;;;;;36.30;25.60;;;;;;;15.31;57.05;100874.09;129516;1281;114725;-68
2023/04/17 09:50:50;;;;;;;;;;;;;;;15.19;57.38;100868.65;129182;1281;114863;-68
2023/04/17 09:53:57;;;;;;;29.40;21.70;;;;;;;15.23;57.72;100871.89;129430;1261;114678;-68
2023/04/17 09:57:02;;;;;;;37.70;26.40;;;;;;;15.13;57.28;100872.11;129514;1281;114724;-67
2023/04/17 10:00:09;;;;;;;33.30;25.60;;;;;;;14.94;57.04;100867.99;129450;1281;114719;-68
2023/04/17 10:03:13;;;;;;;36.50;25.20;;;;;;;14.84;57.56;100868.23;129469;1262;129131;-66
2023/04/17 10:06:16;;;;;;;35.70;25.50;;;;;;;14.76;57.68;100867.95;129412;1264;115268;-67
2023/04/17 10:09:18;;;;;;;39.50;26.40;;;;;;;14.69;57.92;100869.39;129459;1263;115167;-67
2023/04/17 10:12:21;;;;;;;32.70;24.70;;;;;;;14.76;57.98;100868.85;129478;1273;114815;-66
2023/04/17 10:15:25;;;;;;;31.90;24.00;;;;;;;14.79;57.61;100871.94;129680;1262;115249;-69
2023/04/17 10:18:28;;;;;;;32.60;24.00;;;;;;;14.72;57.93;100868.73;129847;1272;128527;-68
2023/04/17 10:21:30;;;;;;;32.70;24.80;;;;;;;14.69;57.86;100867.45;129829;1281;114752;-66
2023/04/17 10:24:33;;;;;;;30.30;23.30;;;;;;;14.76;58.17;100865.63;129502;1261;114715;-65
2023/04/17 10:27:37;;;;;;;34.50;22.60;;;;;;;14.80;57.61;100866.27;129461;1261;114873;-66
2023/04/17 10:30:52;;;;;;;29.80;22.20;;;;;;;14.77;57.96;100860.33;129506;1271;114726;-68
2023/04/17 10:33:55;;;;;;;28.20;22.00;;;;;;;14.93;58.45;100856.89;129418;1261;114807;-65
2023/04/17 10:36:57;;;;;;;26.80;21.40;;;;;;;15.01;57.81;100857.13;129541;1282;114738;-66
2023/04/17 10:40:01;;;;;;;23.00;19.30;;;;;;;14.93;57.49;100857.59;129433;1282;114807;-65
2023/04/17 10:43:23;;;;;;;25.80;20.00;;;;;;;14.83;57.21;100856.38;129456;1269;114731;-64
2023/04/17 10:46:26;;;;;;;25.90;20.50;;;;;;;14.78;57.15;100858.13;129430;1282;114828;-64
2023/04/17 10:49:46;;;;;;;27.40;21.40;;;;;;;14.77;57.32;100850.46;129344;1280;114747;-64
2023/04/17 10:52:48;;;;;;;24.10;18.60;;;;;;;14.78;57.43;100844.83;129411;1274;128577;-66
2023/04/17 10:55:51;;;;;;;23.70;19.60;;;;;;;14.82;57.22;100846.55;129511;1263;114754;-67
2023/04/17 10:58:57;;;;;;;23.90;17.80;;;;;;;14.75;57.44;100841.58;129478;1273;114652;-64
2023/04/17 11:02:03;;;;;;;25.60;17.50;;;;;;;14.75;56.94;100846.98;129467;1267;114788;-68
2023/04/17 11:05:06;;;;;;;25.50;17.90;;;;;;;14.81;57.46;100843.21;129420;1264;114717;-68
2023/04/17 11:08:09;;;;;;;21.00;16.70;;;;;;;14.94;57.83;100843.36;129190;1264;127671;-68
2023/04/17 11:11:11;;;;;;;22.20;17.40;;;;;;;14.99;57.19;100845.20;129382;1264;114792;-67
2023/04/17 11:14:21;;;;;;;25.80;17.90;;;;;;;14.94;57.37;100843.91;129472;1282;114810;-67
2023/04/17 11:17:25;;;;;;;17.70;15.90;;;;;;;15.05;57.71;100839.48;129222;1266;115010;-68
2023/04/17 11:20:29;;;;;;;18.00;14.60;;;;;;;15.17;57.80;100843.57;129493;1272;114740;-67
2023/04/17 11:23:32;;;;;;;16.80;14.20;;;;;;;15.11;56.73;100843.04;129241;1268;127870;-67
2023/04/17 11:26:46;;;;;;;16.80;14.00;;;;;;;14.93;56.45;100849.86;129446;1281;115249;-65
2023/04/17 11:29:48;;;;;;;18.30;15.40;;;;;;;14.77;56.93;100843.29;129472;1272;114744;-65
2023/04/17 11:32:51;;;;;;;19.60;16.10;;;;;;;14.75;57.34;100837.46;129544;1263;115013;-65
2023/04/17 11:35:54;;;;;;;20.30;16.80;;;;;;;14.71;57.25;100836.23;129514;1266;114800;-65
2023/04/17 11:38:57;;;;;;;18.30;14.60;;;;;;;14.68;57.24;100840.33;129648;1264;114820;-66
2023/04/17 11:42:03;;;;;;;17.90;14.70;;;;;;;14.71;57.26;100831.89;129561;1264;114950;-67
2023/04/17 11:45:06;;;;;;;17.70;14.00;;;;;;;14.68;57.22;100838.73;129564;1264;114719;-69
2023/04/17 11:48:11;;;;;;;18.10;14.40;;;;;;;14.65;56.82;100844.45;129687;1260;115316;-67
2023/04/17 11:51:17;;;;;;;18.40;14.50;;;;;;;14.57;56.78;100840.06;129430;1264;114731;-68
2023/04/17 11:54:30;;;;;;;18.10;14.70;;;;;;;14.52;56.78;100838.89;129400;1267;128422;-68
2023/04/17 11:57:42;;;;;;;18.60;15.30;;;;;;;14.48;57.18;100832.80;129160;1264;115168;-68
2023/04/17 12:00:45;;;;;;;18.10;15.20;;;;;;;14.48;57.37;100825.15;129591;1261;114753;-65
2023/04/17 12:03:48;;;;;;;21.40;15.10;;;;;;;14.51;57.48;100828.17;129605;1261;114751;-65
2023/04/17 12:06:50;;;;;;;19.40;15.20;;;;;;;14.54;56.99;100832.49;129570;1281;114832;-65
2023/04/17 12:09:55;;;;;;;18.30;14.80;;;;;;;14.58;57.34;100830.45;129691;1264;114722;-64
2023/04/17 12:12:58;;;;;;;;;;;;;;;14.68;57.28;100828.64;129583;1271;114857;-64
2023/04/17 12:16:00;;;;;;;16.80;13.20;;;;;;;14.71;56.99;100825.58;129459;1261;114748;-66
2023/04/17 12:19:03;;;;;;;15.70;13.70;;;;;;;14.80;57.20;100822.60;129565;1261;114727;-65
2023/04/17 12:22:05;;;;;;;15.00;12.20;;;;;;;14.86;57.04;100820.40;129542;1263;115174;-65
2023/04/17 12:25:08;;;;;;;15.90;13.20;;;;;;;14.91;56.73;100819.23;129438;1263;114734;-65
2023/04/17 12:28:11;;;;;;;16.60;13.90;;;;;;;14.95;57.07;100816.48;129586;1281;114778;-66
2023/04/17 12:31:13;;;;;;;15.30;13.60;;;;;;;15.12;57.08;100816.38;129486;1263;114773;-66
2023/04/17 12:34:16;;;;;;;18.60;14.90;;;;;;;15.24;56.74;100818.01;129597;1281;114750;-67
2023/04/17 12:37:18;;;;;;;14.90;13.20;;;;;;;15.31;56.49;100817.38;129459;1260;114805;-67
2023/04/17 12:40:22;;;;;;;16.50;13.80;;;;;;;15.37;56.36;100811.64;129435;1260;115101;-65
2023/04/17 12:43:24;;;;;;;17.40;15.40;;;;;;;15.48;56.24;100816.52;129650;1280;114798;-65
2023/04/17 12:46:27;;;;;;;15.40;12.20;;;;;;;15.54;56.01;100815.23;129547;1261;114846;-66
2023/04/17 12:49:29;;;;;;;17.50;13.40;;;;;;;15.59;55.47;100813.36;129700;1273;114815;-68
2023/04/17 12:52:31;;;;;;;15.70;13.40;;;;;;;15.61;55.59;100808.55;129342;1281;116541;-69
2023/04/17 12:55:37;;;;;;;19.80;13.80;;;;;;;15.60;55.25;100811.27;129662;1264;114734;-70
2023/04/17 12:58:39;;;;;;;15.50;12.50;;;;;;;15.63;55.62;100801.92;129489;1258;114746;-69
2023/04/17 13:01:42;;;;;;;16.60;14.10;;;;;;;15.72;55.12;100809.88;129419;1263;114802;-69
2023/04/17 13:04:44;;;;;;;15.20;12.50;;;;;;;15.75;55.38;100801.52;129439;1281;114683;-67
2023/04/17 13:07:47;;;;;;;13.70;12.20;;;;;;;15.78;55.36;100798.83;129680;1259;114707;-67
2023/04/17 13:10:49;;;;;;;14.30;12.70;;;;;;;15.77;54.66;100799.02;129298;1264;115155;-67
2023/04/17 13:13:51;;;;;;;15.50;13.80;;;;;;;15.75;54.82;100798.28;129513;1262;114795;-68
2023/04/17 13:16:53;;;;;;;13.60;12.20;;;;;;;15.70;54.77;100795.56;129597;1281;115088;-68
2023/04/17 13:19:56;;;;;;;13.90;11.40;;;;;;;15.66;54.57;100793.05;129504;1262;114980;-69
2023/04/17 13:22:58;;;;;;;14.90;12.00;;;;;;;15.68;54.57;100790.84;129424;1262;222027;-68
2023/04/17 13:26:01;;;;;;;12.70;11.40;;;;;;;15.70;54.44;100789.05;129514;1281;115093;-68
2023/04/17 13:29:03;;;;;;;13.00;11.20;;;;;;;15.76;54.67;100788.70;129608;1262;114709;-68
2023/04/17 13:32:06;;;;;;;14.50;11.80;;;;;;;15.85;54.67;100785.77;129552;1281;115216;-67
2023/04/17 13:35:11;;;;;;;10.90;9.80;;;;;;;15.95;54.32;100787.31;129449;1281;114717;-70
2023/04/17 13:38:14;;;;;;;12.40;9.30;;;;;;;16.02;53.69;100790.52;129376;1263;114815;-70
2023/04/17 13:41:16;;;;;;;9.40;8.40;;;;;;;16.00;53.59;100783.60;129527;1278;114733;-70
2023/04/17 13:44:19;;;;;;;10.00;8.90;;;;;;;15.97;53.39;100781.96;129551;1264;115344;-68